sensor_id;sensor_type;location;lat;lon;timestamp;pressure;altitude;pressure_sealevel;temperature;humidity
6567;BME280;3317;43.994;22.878;2022-09-06T00:01:50;101640.59;;;21.76;63.14
6567;BME280;3317;43.994;22.878;2022-09-06T00:04:19;101630.38;;;21.70;62.94
6567;BME280;3317;43.994;22.878;2022-09-06T00:06:46;101635.47;;;21.73;63.59
6567;BME280;3317;43.994;22.878;2022-09-06T00:09:13;101634.00;;;21.71;63.70
6567;BME280;3317;43.994;22.878;2022-09-06T00:11:40;101633.75;;;21.72;63.84
6567;BME280;3317;43.994;22.878;2022-09-06T00:14:07;101592.91;;;21.47;63.45
6567;BME280;3317;43.994;22.878;2022-09-06T00:16:35;101633.75;;;21.72;63.82
6567;BME280;3317;43.994;22.878;2022-09-06T00:19:05;101634.81;;;21.71;63.62
6567;BME280;3317;43.994;22.878;2022-09-06T00:21:33;101600.13;;;21.48;63.39
6567;BME280;3317;43.994;22.878;2022-09-06T00:24:01;101635.88;;;21.70;63.34
6567;BME280;3317;43.994;22.878;2022-09-06T00:26:28;101627.81;;;21.69;63.12
6567;BME280;3317;43.994;22.878;2022-09-06T00:28:56;101632.47;;;21.68;63.24
6567;BME280;3317;43.994;22.878;2022-09-06T00:31:24;101629.91;;;21.66;62.92
6567;BME280;3317;43.994;22.878;2022-09-06T00:33:53;101618.00;;;21.59;63.00
6567;BME280;3317;43.994;22.878;2022-09-06T00:36:21;101619.47;;;21.62;63.37
6567;BME280;3317;43.994;22.878;2022-09-06T00:38:48;101613.75;;;21.57;62.54
6567;BME280;3317;43.994;22.878;2022-09-06T00:41:15;101621.22;;;21.63;63.04
6567;BME280;3317;43.994;22.878;2022-09-06T00:43:42;101616.06;;;21.60;62.95
6567;BME280;3317;43.994;22.878;2022-09-06T00:46:13;101620.94;;;21.58;63.47
6567;BME280;3317;43.994;22.878;2022-09-06T00:48:42;101613.75;;;21.57;63.81
6567;BME280;3317;43.994;22.878;2022-09-06T00:51:12;101605.25;;;21.51;63.51
6567;BME280;3317;43.994;22.878;2022-09-06T00:53:40;101613.09;;;21.55;63.19
6567;BME280;3317;43.994;22.878;2022-09-06T00:56:08;101619.88;;;21.52;63.62
6567;BME280;3317;43.994;22.878;2022-09-06T00:58:38;101618.41;;;21.49;63.80
6567;BME280;3317;43.994;22.878;2022-09-06T01:01:05;101616.66;;;21.48;64.21
6567;BME280;3317;43.994;22.878;2022-09-06T01:03:33;101613.28;;;21.46;64.39
6567;BME280;3317;43.994;22.878;2022-09-06T01:06:12;101620.91;;;21.44;64.32
6567;BME280;3317;43.994;22.878;2022-09-06T01:08:56;101618.34;;;21.43;63.99
6567;BME280;3317;43.994;22.878;2022-09-06T01:11:56;101616.84;;;21.40;64.19
6567;BME280;3317;43.994;22.878;2022-09-06T01:14:43;101570.69;;;21.07;64.36
6567;BME280;3317;43.994;22.878;2022-09-06T01:17:23;101617.28;;;21.37;64.03
6567;BME280;3317;43.994;22.878;2022-09-06T01:26:03;101617.25;;;21.30;64.56
6567;BME280;3317;43.994;22.878;2022-09-06T01:28:34;101612.75;;;21.29;64.58
6567;BME280;3317;43.994;22.878;2022-09-06T01:31:16;101601.91;;;21.21;64.26
6567;BME280;3317;43.994;22.878;2022-09-06T01:33:49;101612.31;;;21.19;64.57
6567;BME280;3317;43.994;22.878;2022-09-06T01:36:20;101616.34;;;21.23;64.75
6567;BME280;3317;43.994;22.878;2022-09-06T01:38:49;101621.44;;;21.26;64.71
6567;BME280;3317;43.994;22.878;2022-09-06T01:41:16;101586.13;;;21.01;64.92
6567;BME280;3317;43.994;22.878;2022-09-06T01:43:47;101616.16;;;21.24;64.97
6567;BME280;3317;43.994;22.878;2022-09-06T01:46:22;101614.47;;;21.23;64.84
6567;BME280;3317;43.994;22.878;2022-09-06T01:49:02;101608.88;;;21.17;65.19
6567;BME280;3317;43.994;22.878;2022-09-06T01:51:39;101600.84;;;21.15;64.83
6567;BME280;3317;43.994;22.878;2022-09-06T01:54:25;101618.91;;;21.24;63.81
6567;BME280;3317;43.994;22.878;2022-09-06T01:57:06;101604.25;;;21.24;63.83
6567;BME280;3317;43.994;22.878;2022-09-06T01:59:48;101609.13;;;21.22;64.01
6567;BME280;3317;43.994;22.878;2022-09-06T02:02:22;101601.69;;;21.22;64.32
6567;BME280;3317;43.994;22.878;2022-09-06T02:04:55;101608.06;;;21.23;64.25
6567;BME280;3317;43.994;22.878;2022-09-06T02:07:25;101610.19;;;21.21;63.88
6567;BME280;3317;43.994;22.878;2022-09-06T02:09:59;101570.00;;;20.98;62.99
6567;BME280;3317;43.994;22.878;2022-09-06T02:12:32;101548.06;;;20.83;62.47
6567;BME280;3317;43.994;22.878;2022-09-06T02:15:05;101611.03;;;21.21;63.34
6567;BME280;3317;43.994;22.878;2022-09-06T02:17:37;101612.09;;;21.20;63.70
6567;BME280;3317;43.994;22.878;2022-09-06T02:20:09;101602.94;;;21.13;64.14
6567;BME280;3317;43.994;22.878;2022-09-06T02:22:42;101612.09;;;21.20;64.33
6567;BME280;3317;43.994;22.878;2022-09-06T02:25:14;101613.38;;;21.18;64.60
6567;BME280;3317;43.994;22.878;2022-09-06T02:27:44;101610.81;;;21.16;64.62
6567;BME280;3317;43.994;22.878;2022-09-06T02:30:13;101615.66;;;21.14;64.22
6567;BME280;3317;43.994;22.878;2022-09-06T02:32:45;101607.59;;;21.13;64.27
6567;BME280;3317;43.994;22.878;2022-09-06T02:35:15;101610.56;;;21.11;64.67
6567;BME280;3317;43.994;22.878;2022-09-06T02:37:43;101556.25;;;20.76;64.88
6567;BME280;3317;43.994;22.878;2022-09-06T02:40:11;101611.41;;;21.12;65.13
6567;BME280;3317;43.994;22.878;2022-09-06T02:42:39;101617.09;;;21.10;64.47
6567;BME280;3317;43.994;22.878;2022-09-06T02:45:09;101616.91;;;21.12;63.84
6567;BME280;3317;43.994;22.878;2022-09-06T02:47:37;101608.63;;;21.05;63.46
6567;BME280;3317;43.994;22.878;2022-09-06T02:50:06;101622.44;;;21.12;63.94
6567;BME280;3317;43.994;22.878;2022-09-06T02:52:33;101626.25;;;21.10;63.87
6567;BME280;3317;43.994;22.878;2022-09-06T02:55:00;101621.78;;;21.09;63.88
6567;BME280;3317;43.994;22.878;2022-09-06T02:57:27;101629.19;;;21.09;63.83
6567;BME280;3317;43.994;22.878;2022-09-06T02:59:54;101626.44;;;21.09;63.13
6567;BME280;3317;43.994;22.878;2022-09-06T03:02:22;101629.59;;;21.06;62.97
6567;BME280;3317;43.994;22.878;2022-09-06T03:04:51;101601.97;;;20.92;62.40
6567;BME280;3317;43.994;22.878;2022-09-06T03:07:18;101600.91;;;20.93;61.49
6567;BME280;3317;43.994;22.878;2022-09-06T03:09:45;101575.94;;;20.73;61.93
6567;BME280;3317;43.994;22.878;2022-09-06T03:12:12;101623.25;;;21.05;64.08
6567;BME280;3317;43.994;22.878;2022-09-06T03:14:39;101618.13;;;21.02;63.91
6567;BME280;3317;43.994;22.878;2022-09-06T03:17:09;101620.47;;;20.99;64.25
6567;BME280;3317;43.994;22.878;2022-09-06T03:19:36;101620.00;;;20.95;65.40
6567;BME280;3317;43.994;22.878;2022-09-06T03:22:05;101624.69;;;21.01;66.00
6567;BME280;3317;43.994;22.878;2022-09-06T03:24:31;101620.00;;;20.95;64.95
6567;BME280;3317;43.994;22.878;2022-09-06T03:26:59;101622.34;;;20.98;65.48
6567;BME280;3317;43.994;22.878;2022-09-06T03:29:28;101619.34;;;20.93;65.85
6567;BME280;3317;43.994;22.878;2022-09-06T03:31:55;101633.56;;;20.96;66.29
6567;BME280;3317;43.994;22.878;2022-09-06T03:34:21;101622.53;;;20.96;66.35
6567;BME280;3317;43.994;22.878;2022-09-06T03:36:48;101621.69;;;20.96;66.20
6567;BME280;3317;43.994;22.878;2022-09-06T03:39:17;101629.09;;;20.95;65.99
6567;BME280;3317;43.994;22.878;2022-09-06T03:41:45;101632.91;;;20.94;66.69
6567;BME280;3317;43.994;22.878;2022-09-06T03:44:12;101623.59;;;20.95;66.19
6567;BME280;3317;43.994;22.878;2022-09-06T03:46:39;101629.09;;;20.95;65.49
6567;BME280;3317;43.994;22.878;2022-09-06T03:49:06;101616.78;;;20.91;64.92
6567;BME280;3317;43.994;22.878;2022-09-06T03:51:34;101615.56;;;20.94;64.68
6567;BME280;3317;43.994;22.878;2022-09-06T03:54:03;101614.69;;;20.93;65.26
6567;BME280;3317;43.994;22.878;2022-09-06T03:56:31;101620.19;;;20.93;66.50
6567;BME280;3317;43.994;22.878;2022-09-06T03:58:58;101618.50;;;20.92;65.53
6567;BME280;3317;43.994;22.878;2022-09-06T04:01:26;101618.63;;;20.84;65.32
6567;BME280;3317;43.994;22.878;2022-09-06T04:03:53;101623.34;;;20.90;66.97
6567;BME280;3317;43.994;22.878;2022-09-06T04:06:20;101627.34;;;20.88;65.67
6567;BME280;3317;43.994;22.878;2022-09-06T04:08:47;101632.88;;;20.88;64.26
6567;BME280;3317;43.994;22.878;2022-09-06T04:11:16;101634.16;;;20.85;64.12
6567;BME280;3317;43.994;22.878;2022-09-06T04:13:44;101634.34;;;20.84;65.56
6567;BME280;3317;43.994;22.878;2022-09-06T04:16:11;101638.78;;;20.85;67.04
6567;BME280;3317;43.994;22.878;2022-09-06T04:18:39;101630.34;;;20.86;67.98
6567;BME280;3317;43.994;22.878;2022-09-06T04:21:07;101629.47;;;20.86;67.90
6567;BME280;3317;43.994;22.878;2022-09-06T04:23:34;101637.72;;;20.86;68.36
6567;BME280;3317;43.994;22.878;2022-09-06T04:26:02;101628.63;;;20.85;68.49
6567;BME280;3317;43.994;22.878;2022-09-06T04:28:29;101646.88;;;20.86;68.53
6567;BME280;3317;43.994;22.878;2022-09-06T04:31:01;101641.34;;;20.86;68.51
6567;BME280;3317;43.994;22.878;2022-09-06T04:33:31;101649.63;;;20.86;68.87
6567;BME280;3317;43.994;22.878;2022-09-06T04:36:00;101641.66;;;20.76;69.05
6567;BME280;3317;43.994;22.878;2022-09-06T04:38:33;101645.16;;;20.85;68.99
6567;BME280;3317;43.994;22.878;2022-09-06T04:41:03;101650.25;;;20.88;69.31
6567;BME280;3317;43.994;22.878;2022-09-06T04:43:30;101645.34;;;20.84;69.40
6567;BME280;3317;43.994;22.878;2022-09-06T04:46:03;101648.16;;;20.90;69.31
6567;BME280;3317;43.994;22.878;2022-09-06T04:48:30;101654.72;;;20.89;69.28
6567;BME280;3317;43.994;22.878;2022-09-06T04:50:59;101649.84;;;20.91;69.61
6567;BME280;3317;43.994;22.878;2022-09-06T04:53:26;101653.47;;;20.92;69.35
6567;BME280;3317;43.994;22.878;2022-09-06T04:55:57;101641.34;;;20.86;69.43
6567;BME280;3317;43.994;22.878;2022-09-06T04:58:24;101655.81;;;20.95;69.20
6567;BME280;3317;43.994;22.878;2022-09-06T05:00:52;101653.72;;;20.97;69.38
6567;BME280;3317;43.994;22.878;2022-09-06T05:03:22;101654.53;;;20.98;69.43
6567;BME280;3317;43.994;22.878;2022-09-06T05:05:49;101663.50;;;21.00;69.45
6567;BME280;3317;43.994;22.878;2022-09-06T05:08:16;101658.41;;;21.03;69.71
6567;BME280;3317;43.994;22.878;2022-09-06T05:10:43;101660.97;;;21.05;69.38
6567;BME280;3317;43.994;22.878;2022-09-06T05:13:10;101662.25;;;21.09;69.33
6567;BME280;3317;43.994;22.878;2022-09-06T05:15:37;101658.44;;;21.10;68.99
6567;BME280;3317;43.994;22.878;2022-09-06T05:18:05;101660.81;;;21.13;68.81
6567;BME280;3317;43.994;22.878;2022-09-06T05:20:35;101661.25;;;21.17;68.83
6567;BME280;3317;43.994;22.878;2022-09-06T05:23:02;101656.19;;;21.20;68.43
6567;BME280;3317;43.994;22.878;2022-09-06T05:25:29;101661.31;;;21.23;68.04
6567;BME280;3317;43.994;22.878;2022-09-06T05:27:57;101666.41;;;21.27;67.67
6567;BME280;3317;43.994;22.878;2022-09-06T05:30:24;101660.50;;;21.30;66.73
6567;BME280;3317;43.994;22.878;2022-09-06T05:32:51;101611.78;;;21.02;68.17
6567;BME280;3317;43.994;22.878;2022-09-06T05:35:18;101668.19;;;21.41;68.86
6567;BME280;3317;43.994;22.878;2022-09-06T05:37:46;101651.00;;;21.39;68.90
6567;BME280;3317;43.994;22.878;2022-09-06T05:40:14;101665.91;;;21.51;68.84
6567;BME280;3317;43.994;22.878;2022-09-06T05:42:41;101672.72;;;21.56;68.34
6567;BME280;3317;43.994;22.878;2022-09-06T05:45:09;101650.16;;;21.45;67.70
6567;BME280;3317;43.994;22.878;2022-09-06T05:47:37;101665.09;;;21.64;67.41
6567;BME280;3317;43.994;22.878;2022-09-06T05:50:04;101660.91;;;21.69;67.39
6567;BME280;3317;43.994;22.878;2022-09-06T05:52:32;101657.13;;;21.70;67.01
6567;BME280;3317;43.994;22.878;2022-09-06T05:55:01;101668.97;;;21.70;67.28
6567;BME280;3317;43.994;22.878;2022-09-06T05:57:29;101667.47;;;21.67;67.49
6567;BME280;3317;43.994;22.878;2022-09-06T05:59:57;101655.31;;;21.55;67.87
6567;BME280;3317;43.994;22.878;2022-09-06T06:02:25;101672.81;;;21.69;68.22
6567;BME280;3317;43.994;22.878;2022-09-06T06:04:52;101631.97;;;21.58;68.00
6567;BME280;3317;43.994;22.878;2022-09-06T06:07:28;101666.91;;;21.79;68.05
6567;BME280;3317;43.994;22.878;2022-09-06T06:09:54;101672.03;;;21.89;66.91
6567;BME280;3317;43.994;22.878;2022-09-06T06:12:23;101665.25;;;21.98;66.26
6567;BME280;3317;43.994;22.878;2022-09-06T06:14:50;101658.03;;;21.97;66.26
6567;BME280;3317;43.994;22.878;2022-09-06T06:17:19;101664.66;;;22.09;66.31
6567;BME280;3317;43.994;22.878;2022-09-06T06:19:46;101675.28;;;22.13;66.24
6567;BME280;3317;43.994;22.878;2022-09-06T06:22:13;101679.34;;;22.17;65.96
6567;BME280;3317;43.994;22.878;2022-09-06T06:24:40;101673.38;;;22.13;66.37
6567;BME280;3317;43.994;22.878;2022-09-06T06:27:08;101683.56;;;22.19;66.39
6567;BME280;3317;43.994;22.878;2022-09-06T06:29:38;101676.13;;;22.13;66.60
6567;BME280;3317;43.994;22.878;2022-09-06T06:32:06;101686.78;;;22.23;67.00
6567;BME280;3317;43.994;22.878;2022-09-06T06:34:34;101681.91;;;22.32;66.23
6567;BME280;3317;43.994;22.878;2022-09-06T06:37:01;101672.78;;;22.31;66.39
6567;BME280;3317;43.994;22.878;2022-09-06T06:39:28;101687.44;;;22.39;66.09
6567;BME280;3317;43.994;22.878;2022-09-06T06:41:55;101688.09;;;22.41;65.42
6567;BME280;3317;43.994;22.878;2022-09-06T06:44:22;101695.06;;;22.30;65.64
6567;BME280;3317;43.994;22.878;2022-09-06T06:46:54;101698.88;;;22.22;66.08
6567;BME280;3317;43.994;22.878;2022-09-06T06:49:23;101693.13;;;22.17;66.26
6567;BME280;3317;43.994;22.878;2022-09-06T06:51:49;101697.81;;;22.23;66.35
6567;BME280;3317;43.994;22.878;2022-09-06T06:54:16;101694.22;;;22.22;66.21
6567;BME280;3317;43.994;22.878;2022-09-06T06:56:43;101703.78;;;22.33;66.47
6567;BME280;3317;43.994;22.878;2022-09-06T06:59:10;101704.84;;;22.39;66.34
6567;BME280;3317;43.994;22.878;2022-09-06T07:01:37;101704.44;;;22.42;66.38
6567;BME280;3317;43.994;22.878;2022-09-06T07:04:06;101681.50;;;22.42;66.16
6567;BME280;3317;43.994;22.878;2022-09-06T07:06:48;101707.25;;;22.89;66.31
6567;BME280;3317;43.994;22.878;2022-09-06T07:09:17;101713.44;;;23.05;65.54
6567;BME280;3317;43.994;22.878;2022-09-06T07:11:44;101673.88;;;22.98;65.00
6567;BME280;3317;43.994;22.878;2022-09-06T07:14:13;101706.38;;;23.43;64.27
6567;BME280;3317;43.994;22.878;2022-09-06T07:16:42;101712.72;;;23.63;63.43
6567;BME280;3317;43.994;22.878;2022-09-06T07:19:11;101723.91;;;23.82;62.22
6567;BME280;3317;43.994;22.878;2022-09-06T07:21:38;101708.09;;;23.96;61.69
6567;BME280;3317;43.994;22.878;2022-09-06T07:24:05;101714.47;;;24.03;60.86
6567;BME280;3317;43.994;22.878;2022-09-06T07:26:33;101712.72;;;24.16;61.28
6567;BME280;3317;43.994;22.878;2022-09-06T07:29:02;101709.69;;;24.24;60.43
6567;BME280;3317;43.994;22.878;2022-09-06T07:31:33;101718.16;;;24.29;60.26
6567;BME280;3317;43.994;22.878;2022-09-06T07:34:01;101716.00;;;24.31;60.04
6567;BME280;3317;43.994;22.878;2022-09-06T07:36:33;101713.97;;;24.52;59.88
6567;BME280;3317;43.994;22.878;2022-09-06T07:39:00;101708.16;;;24.60;59.51
6567;BME280;3317;43.994;22.878;2022-09-06T07:41:27;101710.19;;;24.72;59.68
6567;BME280;3317;43.994;22.878;2022-09-06T07:43:55;101699.97;;;24.72;58.69
6567;BME280;3317;43.994;22.878;2022-09-06T07:46:24;101708.69;;;24.76;58.55
6567;BME280;3317;43.994;22.878;2022-09-06T07:48:52;101710.09;;;24.85;58.66
6567;BME280;3317;43.994;22.878;2022-09-06T07:51:20;101711.25;;;25.03;59.07
6567;BME280;3317;43.994;22.878;2022-09-06T07:53:50;101706.41;;;25.17;58.46
6567;BME280;3317;43.994;22.878;2022-09-06T07:56:18;101711.50;;;25.20;57.61
6567;BME280;3317;43.994;22.878;2022-09-06T07:58:46;101708.63;;;25.08;56.53
6567;BME280;3317;43.994;22.878;2022-09-06T08:01:25;101711.38;;;24.89;57.11
6567;BME280;3317;43.994;22.878;2022-09-06T08:03:55;101707.53;;;24.91;57.71
6567;BME280;3317;43.994;22.878;2022-09-06T08:06:24;101701.25;;;25.02;58.05
6567;BME280;3317;43.994;22.878;2022-09-06T08:08:54;101705.31;;;25.18;57.78
6567;BME280;3317;43.994;22.878;2022-09-06T08:11:21;101699.03;;;25.29;57.65
6567;BME280;3317;43.994;22.878;2022-09-06T08:13:50;101648.34;;;25.22;57.86
6567;BME280;3317;43.994;22.878;2022-09-06T08:16:20;101702.22;;;25.70;56.59
6567;BME280;3317;43.994;22.878;2022-09-06T08:18:50;101695.97;;;25.75;55.15
6567;BME280;3317;43.994;22.878;2022-09-06T08:21:21;101692.22;;;25.69;54.86
6567;BME280;3317;43.994;22.878;2022-09-06T08:23:50;101689.56;;;25.75;55.02
6567;BME280;3317;43.994;22.878;2022-09-06T08:26:21;101694.34;;;25.86;55.62
6567;BME280;3317;43.994;22.878;2022-09-06T08:28:52;101691.06;;;26.08;55.56
6567;BME280;3317;43.994;22.878;2022-09-06T08:31:20;101691.03;;;26.26;54.67
6567;BME280;3317;43.994;22.878;2022-09-06T08:33:48;101680.78;;;26.27;53.23
6567;BME280;3317;43.994;22.878;2022-09-06T08:36:15;101686.88;;;26.17;52.66
6567;BME280;3317;43.994;22.878;2022-09-06T08:38:43;101672.22;;;26.10;53.54
6567;BME280;3317;43.994;22.878;2022-09-06T08:41:16;101676.09;;;26.09;53.10
6567;BME280;3317;43.994;22.878;2022-09-06T08:43:57;101672.94;;;26.05;52.91
6567;BME280;3317;43.994;22.878;2022-09-06T08:46:32;101682.56;;;26.21;54.48
6567;BME280;3317;43.994;22.878;2022-09-06T08:49:03;101679.00;;;26.45;55.16
6567;BME280;3317;43.994;22.878;2022-09-06T08:51:54;101674.09;;;26.70;54.67
6567;BME280;3317;43.994;22.878;2022-09-06T08:54:32;101681.03;;;26.92;53.88
6567;BME280;3317;43.994;22.878;2022-09-06T08:57:08;101674.63;;;26.91;51.09
6567;BME280;3317;43.994;22.878;2022-09-06T08:59:39;101660.72;;;27.03;52.55
6567;BME280;3317;43.994;22.878;2022-09-06T09:02:12;101673.84;;;27.44;52.17
6567;BME280;3317;43.994;22.878;2022-09-06T09:04:43;101627.16;;;27.46;52.73
6567;BME280;3317;43.994;22.878;2022-09-06T09:07:29;101673.13;;;27.89;49.61
6567;BME280;3317;43.994;22.878;2022-09-06T09:10:02;101656.97;;;27.74;48.98
6567;BME280;3317;43.994;22.878;2022-09-06T09:12:33;101665.06;;;27.76;49.19
6567;BME280;3317;43.994;22.878;2022-09-06T09:15:11;101663.19;;;27.93;50.08
6567;BME280;3317;43.994;22.878;2022-09-06T09:17:39;101636.63;;;28.03;49.64
6567;BME280;3317;43.994;22.878;2022-09-06T09:20:07;101661.16;;;28.35;48.94
6567;BME280;3317;43.994;22.878;2022-09-06T09:22:35;101627.50;;;28.36;48.58
6567;BME280;3317;43.994;22.878;2022-09-06T09:25:04;101582.47;;;28.28;48.96
6567;BME280;3317;43.994;22.878;2022-09-06T09:27:37;101633.56;;;28.85;49.75
6567;BME280;3317;43.994;22.878;2022-09-06T09:30:09;101632.25;;;29.09;48.41
6567;BME280;3317;43.994;22.878;2022-09-06T09:32:38;101623.84;;;29.27;47.18
6567;BME280;3317;43.994;22.878;2022-09-06T09:35:22;101622.66;;;29.22;46.05
6567;BME280;3317;43.994;22.878;2022-09-06T09:38:02;101617.53;;;29.14;45.77
6567;BME280;3317;43.994;22.878;2022-09-06T09:40:34;101594.81;;;29.28;47.46
6567;BME280;3317;43.994;22.878;2022-09-06T09:43:15;101607.50;;;29.85;48.96
6567;BME280;3317;43.994;22.878;2022-09-06T09:46:06;101613.59;;;30.04;45.09
6567;BME280;3317;43.994;22.878;2022-09-06T09:48:34;101612.97;;;30.30;46.03
6567;BME280;3317;43.994;22.878;2022-09-06T09:51:18;101612.16;;;30.67;44.83
6567;BME280;3317;43.994;22.878;2022-09-06T09:53:50;101604.63;;;30.73;42.48
6567;BME280;3317;43.994;22.878;2022-09-06T09:56:33;101620.03;;;30.70;41.63
6567;BME280;3317;43.994;22.878;2022-09-06T09:59:07;101615.66;;;30.85;44.34
6567;BME280;3317;43.994;22.878;2022-09-06T10:01:44;101609.41;;;30.72;40.87
6567;BME280;3317;43.994;22.878;2022-09-06T10:04:18;101606.03;;;30.70;41.04
6567;BME280;3317;43.994;22.878;2022-09-06T10:06:46;101604.53;;;31.00;42.78
6567;BME280;3317;43.994;22.878;2022-09-06T10:09:30;101601.72;;;31.54;42.04
6567;BME280;3317;43.994;22.878;2022-09-06T10:11:59;101603.47;;;31.91;40.34
6567;BME280;3317;43.994;22.878;2022-09-06T10:14:29;101561.97;;;31.67;39.35
6567;BME280;3317;43.994;22.878;2022-09-06T10:16:58;101592.28;;;31.86;40.32
6567;BME280;3317;43.994;22.878;2022-09-06T10:19:40;101598.44;;;31.83;38.95
6567;BME280;3317;43.994;22.878;2022-09-06T10:22:28;101602.59;;;31.75;39.87
6567;BME280;3317;43.994;22.878;2022-09-06T10:25:32;101594.16;;;31.70;38.94
6567;BME280;3317;43.994;22.878;2022-09-06T10:28:26;101593.88;;;31.61;39.68
6567;BME280;3317;43.994;22.878;2022-09-06T10:31:15;101580.13;;;31.59;39.63
6567;BME280;3317;43.994;22.878;2022-09-06T10:34:04;101584.09;;;31.64;39.50
6567;BME280;3317;43.994;22.878;2022-09-06T10:36:36;101568.41;;;31.78;40.62
6567;BME280;3317;43.994;22.878;2022-09-06T10:39:15;101574.91;;;32.10;40.84
6567;BME280;3317;43.994;22.878;2022-09-06T10:41:59;101573.50;;;32.33;39.54
6567;BME280;3317;43.994;22.878;2022-09-06T10:44:44;101578.56;;;32.47;39.87
6567;BME280;3317;43.994;22.878;2022-09-06T10:47:14;101585.25;;;32.77;39.47
6567;BME280;3317;43.994;22.878;2022-09-06T10:49:46;101573.97;;;32.87;37.77
6567;BME280;3317;43.994;22.878;2022-09-06T10:52:19;101567.81;;;32.95;37.27
6567;BME280;3317;43.994;22.878;2022-09-06T10:54:49;101569.50;;;32.81;36.65
6567;BME280;3317;43.994;22.878;2022-09-06T10:57:28;101571.78;;;32.79;36.80
6567;BME280;3317;43.994;22.878;2022-09-06T11:00:05;101563.59;;;32.82;37.31
6567;BME280;3317;43.994;22.878;2022-09-06T11:02:45;101554.91;;;32.84;36.86
6567;BME280;3317;43.994;22.878;2022-09-06T11:05:21;101561.44;;;32.58;35.98
6567;BME280;3317;43.994;22.878;2022-09-06T11:07:54;101556.66;;;32.49;36.60
6567;BME280;3317;43.994;22.878;2022-09-06T11:10:23;101552.47;;;32.41;36.35
6567;BME280;3317;43.994;22.878;2022-09-06T11:12:56;101557.78;;;32.48;36.40
6567;BME280;3317;43.994;22.878;2022-09-06T11:15:30;101547.16;;;32.19;35.63
6567;BME280;3317;43.994;22.878;2022-09-06T11:18:04;101546.03;;;32.09;37.42
6567;BME280;3317;43.994;22.878;2022-09-06T11:20:38;101560.03;;;32.20;37.31
6567;BME280;3317;43.994;22.878;2022-09-06T11:23:22;101548.00;;;32.40;37.39
6567;BME280;3317;43.994;22.878;2022-09-06T11:26:15;101550.75;;;32.55;35.93
6567;BME280;3317;43.994;22.878;2022-09-06T11:28:52;101549.97;;;32.39;35.15
6567;BME280;3317;43.994;22.878;2022-09-06T11:31:23;101544.91;;;31.95;35.40
6567;BME280;3317;43.994;22.878;2022-09-06T11:34:02;101534.81;;;31.83;35.73
6567;BME280;3317;43.994;22.878;2022-09-06T11:36:37;101537.91;;;31.87;36.89
6567;BME280;3317;43.994;22.878;2022-09-06T11:39:07;101543.25;;;32.04;36.53
6567;BME280;3317;43.994;22.878;2022-09-06T11:41:35;101547.16;;;32.13;35.81
6567;BME280;3317;43.994;22.878;2022-09-06T11:44:05;101534.81;;;32.25;37.46
6567;BME280;3317;43.994;22.878;2022-09-06T11:46:57;101526.97;;;32.42;35.80
6567;BME280;3317;43.994;22.878;2022-09-06T11:49:37;101478.75;;;32.20;34.98
6567;BME280;3317;43.994;22.878;2022-09-06T11:55:35;101527.41;;;32.76;34.29
6567;BME280;3317;43.994;22.878;2022-09-06T11:58:05;101515.69;;;32.63;34.39
6567;BME280;3317;43.994;22.878;2022-09-06T12:00:39;101514.00;;;32.62;35.20
6567;BME280;3317;43.994;22.878;2022-09-06T12:03:07;101520.16;;;32.69;36.24
6567;BME280;3317;43.994;22.878;2022-09-06T12:08:44;101519.34;;;32.64;35.26
6567;BME280;3317;43.994;22.878;2022-09-06T12:11:33;101512.94;;;32.27;34.75
6567;BME280;3317;43.994;22.878;2022-09-06T12:14:03;101502.31;;;31.82;36.03
6567;BME280;3317;43.994;22.878;2022-09-06T12:19:48;101489.13;;;31.72;36.47
6567;BME280;3317;43.994;22.878;2022-09-06T12:25:52;101494.22;;;30.91;37.26
6567;BME280;3317;43.994;22.878;2022-09-06T12:28:48;101477.94;;;30.77;36.50
6567;BME280;3317;43.994;22.878;2022-09-06T12:31:26;101479.94;;;30.87;38.16
6567;BME280;3317;43.994;22.878;2022-09-06T12:33:57;101468.47;;;30.89;37.75
6567;BME280;3317;43.994;22.878;2022-09-06T12:36:26;101441.03;;;30.81;38.08
6567;BME280;3317;43.994;22.878;2022-09-06T12:38:57;101470.81;;;31.13;38.03
6567;BME280;3317;43.994;22.878;2022-09-06T12:41:27;101470.28;;;31.21;38.38
6567;BME280;3317;43.994;22.878;2022-09-06T12:43:57;101467.47;;;31.21;37.17
6567;BME280;3317;43.994;22.878;2022-09-06T12:46:28;101457.38;;;31.15;37.94
6567;BME280;3317;43.994;22.878;2022-09-06T12:49:01;101455.69;;;31.09;38.13
6567;BME280;3317;43.994;22.878;2022-09-06T12:51:29;101450.63;;;31.05;37.67
6567;BME280;3317;43.994;22.878;2022-09-06T12:53:59;101449.16;;;30.82;37.26
6567;BME280;3317;43.994;22.878;2022-09-06T12:56:27;101409.50;;;30.32;37.91
6567;BME280;3317;43.994;22.878;2022-09-06T12:59:14;101444.78;;;30.48;38.65
6567;BME280;3317;43.994;22.878;2022-09-06T13:01:49;101444.78;;;30.43;39.35
6567;BME280;3317;43.994;22.878;2022-09-06T13:04:26;101442.78;;;30.39;38.69
6567;BME280;3317;43.994;22.878;2022-09-06T13:06:55;101436.03;;;30.29;38.98
6567;BME280;3317;43.994;22.878;2022-09-06T13:09:23;101435.38;;;30.17;38.47
6567;BME280;3317;43.994;22.878;2022-09-06T13:12:02;101438.84;;;29.91;38.62
6567;BME280;3317;43.994;22.878;2022-09-06T13:14:32;101431.41;;;29.70;39.09
6567;BME280;3317;43.994;22.878;2022-09-06T13:16:59;101428.41;;;29.49;39.13
6567;BME280;3317;43.994;22.878;2022-09-06T13:19:33;101435.50;;;29.34;39.54
6567;BME280;3317;43.994;22.878;2022-09-06T13:22:03;101424.16;;;29.14;39.62
6567;BME280;3317;43.994;22.878;2022-09-06T13:24:42;101409.25;;;29.03;40.68
6567;BME280;3317;43.994;22.878;2022-09-06T13:27:24;101410.44;;;28.85;40.94
6567;BME280;3317;43.994;22.878;2022-09-06T13:29:57;101365.25;;;28.38;41.31
6567;BME280;3317;43.994;22.878;2022-09-06T13:32:25;101412.75;;;28.48;41.41
6567;BME280;3317;43.994;22.878;2022-09-06T13:34:53;101417.34;;;28.37;41.59
6567;BME280;3317;43.994;22.878;2022-09-06T13:37:23;101410.72;;;28.21;42.24
6567;BME280;3317;43.994;22.878;2022-09-06T13:39:51;101405.75;;;28.23;42.57
6567;BME280;3317;43.994;22.878;2022-09-06T13:42:28;101404.84;;;28.18;42.82